KRHI/RHI METAR and TAF weather

Enter ICAO airport designator
Station Type Date Time Source
KRHI METAR 2024/04/15 08:53 UTC NOAA

KRHI 150853Z AUTO 00000KT 10SM CLR 01/M03 A2991 RMK AO2 SLP135 T00061028 53009


Station Type Date Time Source
KRHI Decoded METAR 2024/04/15 08:53 UTC NOAA

RHINELANDER-ONEIDA CO AIRPORT , WI, United States (KRHI) 45-38N 89-29W 485M
Apr 15, 2024 - 04:53 AM EDT / 2024.04.15 0853 UTC
Wind: Calm:0
Visibility: 10 mile(s):0
Sky conditions: clear
Temperature: 33.1 F (0.6 C)
Dew Point: 27.0 F (-2.8 C)
Relative Humidity: 77%
Pressure (altimeter): 29.91 in. Hg (1012 hPa)
Pressure tendency: 0.03 inches (0.9 hPa) higher than three hours ago
ob: KRHI 150853Z AUTO 00000KT 10SM CLR 01/M03 A2991 RMK AO2 SLP135 T00061028 53009
cycle: 9

Station Type Date Time Source
KRHI TAF 2024/04/15 07:54 UTC NOAA